Beks Yilmaz — V7WG9 — position and weather

sailwx.info

Track history (hours):
 
Tides and Currents Weather Stations Pressure Air Temp Water Temp Dewpoint Dewpoint Depression Visibility Wind Speed Wind Dir Waves Ship Positions

Beks Yilmaz

Last reported at 2018-Feb-13 22:48 UTC. Time now 2018-Feb-22 15:15 UTC.
Position N 25°23' W 015°23'.
Warning: this ship's position is 8 days out of date.

Length 229 m; draft 7.3 m.

Type: Cargo ship. MMSI: 538004298.

Date/timePositionNaut miles runAvg speedWind from/ knotsBaromVisibWave heightAir tempDewpointWater temp
2018-Feb-13 22:48N 25°23' W 015°23'413.1
2018-Feb-13 22:29N 25°27' W 015°21'4813.3
2018-Feb-13 18:52N 26°08' W 014°53'613.3
2018-Feb-13 18:25N 26°13' W 014°50'613.3
2018-Feb-13 18:00N 26°18' W 014°47'612.9
2018-Feb-13 17:30N 26°24' W 014°43'613.0
2018-Feb-13 17:00N 26°29' W 014°39'713.3
2018-Feb-13 16:30N 26°35' W 014°36'713.6
2018-Feb-13 16:00N 26°41' W 014°32'713.6
2018-Feb-13 15:31N 26°47' W 014°28'714.1
2018-Feb-13 15:00N 26°53' W 014°24'713.9
2018-Feb-13 14:30N 26°59' W 014°20'713.6
2018-Feb-13 14:00N 27°04' W 014°16'713.1
2018-Feb-13 13:30N 27°10' W 014°13'612.8
2018-Feb-13 13:00N 27°16' W 014°09'2712.9
2018-Feb-13 10:53N 27°39' W 013°52'712.7
2018-Feb-13 10:22N 27°44' W 013°47'612.7
2018-Feb-13 09:52N 27°49' W 013°43'63912.4
2018-Feb-11 06:33N 35°57' W 005°39'2 9.9
2018-Feb-11 06:21N 35°58' W 005°36'3 9.7
2018-Feb-11 06:00N 35°59' W 005°32'5 9.0
2018-Feb-11 05:30N 35°60' W 005°27'4 8.5
2018-Feb-11 05:00N 36°00' W 005°22'4 8.6
2018-Feb-11 04:30N 36°01' W 005°17'5 9.8
2018-Feb-11 04:00N 36°02' W 005°11'  
2018-Feb-07 21:48N 36°43' E 013°38'310.8
2018-Feb-07 21:30N 36°42' E 013°42'  
2018-Feb-04 14:30N 31°44' E 031°44'16 2.1
2018-Feb-04 06:51N 31°28' E 031°46'0 0.0
2018-Feb-04 06:15N 31°28' E 031°46'0 0.0
2018-Feb-04 05:51N 31°28' E 031°46'0 0.0
2018-Feb-04 05:27N 31°28' E 031°46'0 0.0
2018-Feb-04 04:55N 31°28' E 031°46'0 0.0
2018-Feb-04 03:39N 31°28' E 031°46'0 0.0
2018-Feb-04 03:30N 31°28' E 031°46'0 0.0
2018-Feb-04 02:57N 31°28' E 031°46'0 0.0
2018-Feb-04 02:30N 31°28' E 031°46'0 0.0
2018-Feb-04 01:57N 31°28' E 031°46'  
Track history (hours):
 
Tides and Currents Weather Stations Pressure Air Temp Water Temp Dewpoint Dewpoint Depression Visibility Wind Speed Wind Dir Waves Ship Positions

Beks Yilmaz

Last reported at 2018-Feb-13 22:48 UTC. Time now 2018-Feb-22 15:15 UTC.
Position N 25°23' W 015°23'.
Warning: this ship's position is 8 days out of date.

Length 229 m; draft 7.3 m.

Type: Cargo ship. MMSI: 538004298.

Date/timePositionNaut miles runAvg speedWind from/ knotsBaromVisibWave heightAir tempDewpointWater temp
2018-Feb-13 22:48N 25°23' W 015°23'413.1
2018-Feb-13 22:29N 25°27' W 015°21'4813.3
2018-Feb-13 18:52N 26°08' W 014°53'613.3
2018-Feb-13 18:25N 26°13' W 014°50'613.3
2018-Feb-13 18:00N 26°18' W 014°47'612.9
2018-Feb-13 17:30N 26°24' W 014°43'613.0
2018-Feb-13 17:00N 26°29' W 014°39'713.3
2018-Feb-13 16:30N 26°35' W 014°36'713.6
2018-Feb-13 16:00N 26°41' W 014°32'713.6
2018-Feb-13 15:31N 26°47' W 014°28'714.1
2018-Feb-13 15:00N 26°53' W 014°24'713.9
2018-Feb-13 14:30N 26°59' W 014°20'713.6
2018-Feb-13 14:00N 27°04' W 014°16'713.1
2018-Feb-13 13:30N 27°10' W 014°13'612.8
2018-Feb-13 13:00N 27°16' W 014°09'2712.9
2018-Feb-13 10:53N 27°39' W 013°52'712.7
2018-Feb-13 10:22N 27°44' W 013°47'612.7
2018-Feb-13 09:52N 27°49' W 013°43'63912.4
2018-Feb-11 06:33N 35°57' W 005°39'2 9.9
2018-Feb-11 06:21N 35°58' W 005°36'3 9.7
2018-Feb-11 06:00N 35°59' W 005°32'5 9.0
2018-Feb-11 05:30N 35°60' W 005°27'4 8.5
2018-Feb-11 05:00N 36°00' W 005°22'4 8.6
2018-Feb-11 04:30N 36°01' W 005°17'5 9.8
2018-Feb-11 04:00N 36°02' W 005°11'  
2018-Feb-07 21:48N 36°43' E 013°38'310.8
2018-Feb-07 21:30N 36°42' E 013°42'  
2018-Feb-04 14:30N 31°44' E 031°44'16 2.1
2018-Feb-04 06:51N 31°28' E 031°46'0 0.0
2018-Feb-04 06:15N 31°28' E 031°46'0 0.0
2018-Feb-04 05:51N 31°28' E 031°46'0 0.0
2018-Feb-04 05:27N 31°28' E 031°46'0 0.0
2018-Feb-04 04:55N 31°28' E 031°46'0 0.0
2018-Feb-04 03:39N 31°28' E 031°46'0 0.0
2018-Feb-04 03:30N 31°28' E 031°46'0 0.0
2018-Feb-04 02:57N 31°28' E 031°46'0 0.0
2018-Feb-04 02:30N 31°28' E 031°46'0 0.0
2018-Feb-04 01:57N 31°28' E 031°46'  

Dump ship's entire track history